sensor_id;sensor_type;location;lat;lon;timestamp;pressure;altitude;pressure_sealevel;temperature;humidity
64343;BME280;50675;53.530;-6.312;2022-08-21T00:01:48;100705.63;;;13.75;63.10
64343;BME280;50675;53.530;-6.312;2022-08-21T00:04:17;100703.97;;;13.69;63.21
64343;BME280;50675;53.530;-6.312;2022-08-21T00:06:46;100712.13;;;13.69;63.48
64343;BME280;50675;53.530;-6.312;2022-08-21T00:09:23;100712.09;;;13.64;63.30
64343;BME280;50675;53.530;-6.312;2022-08-21T00:12:02;100721.88;;;13.65;63.21
64343;BME280;50675;53.530;-6.312;2022-08-21T00:14:52;100709.63;;;13.52;63.12
64343;BME280;50675;53.530;-6.312;2022-08-21T00:17:23;100710.94;;;13.45;63.29
64343;BME280;50675;53.530;-6.312;2022-08-21T00:19:58;100714.22;;;13.47;63.31
64343;BME280;50675;53.530;-6.312;2022-08-21T00:22:32;100707.13;;;13.41;63.33
64343;BME280;50675;53.530;-6.312;2022-08-21T00:25:10;100719.09;;;13.40;63.40
64343;BME280;50675;53.530;-6.312;2022-08-21T00:27:36;100710.38;;;13.33;63.37
64343;BME280;50675;53.530;-6.312;2022-08-21T00:30:09;100715.78;;;13.28;63.15
64343;BME280;50675;53.530;-6.312;2022-08-21T00:32:47;100736.16;;;13.35;63.33
64343;BME280;50675;53.530;-6.312;2022-08-21T00:35:18;100736.94;;;13.31;63.40
64343;BME280;50675;53.530;-6.312;2022-08-21T00:37:49;100708.66;;;13.17;63.17
64343;BME280;50675;53.530;-6.312;2022-08-21T00:40:23;100727.13;;;13.20;63.27
64343;BME280;50675;53.530;-6.312;2022-08-21T00:42:57;100704.63;;;13.19;63.32
64343;BME280;50675;53.530;-6.312;2022-08-21T00:45:36;100714.41;;;13.20;63.22
64343;BME280;50675;53.530;-6.312;2022-08-21T00:48:16;100710.56;;;13.16;63.22
64343;BME280;50675;53.530;-6.312;2022-08-21T00:50:55;100706.72;;;13.12;63.08
64343;BME280;50675;53.530;-6.312;2022-08-21T00:53:29;100709.69;;;13.10;63.22
64343;BME280;50675;53.530;-6.312;2022-08-21T00:55:57;100720.53;;;13.10;63.30
64343;BME280;50675;53.530;-6.312;2022-08-21T00:58:27;100720.50;;;13.00;63.39
64343;BME280;50675;53.530;-6.312;2022-08-21T01:01:07;100704.72;;;12.92;63.32
64343;BME280;50675;53.530;-6.312;2022-08-21T01:03:39;100699.81;;;12.89;63.15
64343;BME280;50675;53.530;-6.312;2022-08-21T01:06:06;100706.31;;;12.93;63.25
64343;BME280;50675;53.530;-6.312;2022-08-21T01:08:38;100710.69;;;12.94;63.36
64343;BME280;50675;53.530;-6.312;2022-08-21T01:11:05;100710.41;;;12.91;63.02
64343;BME280;50675;53.530;-6.312;2022-08-21T01:13:36;100697.56;;;12.76;63.24
64343;BME280;50675;53.530;-6.312;2022-08-21T01:16:09;100705.16;;;12.79;63.13
64343;BME280;50675;53.530;-6.312;2022-08-21T01:18:40;100714.41;;;12.78;63.07
64343;BME280;50675;53.530;-6.312;2022-08-21T01:21:16;100729.56;;;12.79;63.18
64343;BME280;50675;53.530;-6.312;2022-08-21T01:23:48;100709.41;;;12.65;63.15
64343;BME280;50675;53.530;-6.312;2022-08-21T01:26:27;100700.69;;;12.58;63.24
64343;BME280;50675;53.530;-6.312;2022-08-21T01:29:26;100739.22;;;12.65;63.11
64343;BME280;50675;53.530;-6.312;2022-08-21T01:32:07;100722.38;;;12.58;63.11
64343;BME280;50675;53.530;-6.312;2022-08-21T01:34:48;100730.53;;;12.63;63.08
64343;BME280;50675;53.530;-6.312;2022-08-21T01:37:30;100731.63;;;12.62;63.05
64343;BME280;50675;53.530;-6.312;2022-08-21T01:40:07;100739.16;;;12.60;63.19
64343;BME280;50675;53.530;-6.312;2022-08-21T01:42:34;100725.88;;;12.53;63.08
64343;BME280;50675;53.530;-6.312;2022-08-21T01:45:04;100744.00;;;12.53;63.15
64343;BME280;50675;53.530;-6.312;2022-08-21T01:47:30;100725.19;;;12.41;63.22
64343;BME280;50675;53.530;-6.312;2022-08-21T01:50:06;100753.19;;;12.52;63.11
64343;BME280;50675;53.530;-6.312;2022-08-21T01:52:46;100735.50;;;12.39;63.00
64343;BME280;50675;53.530;-6.312;2022-08-21T01:55:19;100749.38;;;12.48;63.34
64343;BME280;50675;53.530;-6.312;2022-08-21T01:57:48;100730.81;;;12.30;62.96
64343;BME280;50675;53.530;-6.312;2022-08-21T02:00:18;100717.00;;;12.31;62.98
64343;BME280;50675;53.530;-6.312;2022-08-21T02:02:48;100726.47;;;12.28;63.05
64343;BME280;50675;53.530;-6.312;2022-08-21T02:05:18;100737.03;;;12.30;63.07
64343;BME280;50675;53.530;-6.312;2022-08-21T02:07:50;100737.28;;;12.28;63.07
64343;BME280;50675;53.530;-6.312;2022-08-21T02:10:22;100720.69;;;12.20;62.94
64343;BME280;50675;53.530;-6.312;2022-08-21T02:12:57;100719.88;;;12.19;62.83
64343;BME280;50675;53.530;-6.312;2022-08-21T02:15:34;100728.25;;;12.18;63.05
64343;BME280;50675;53.530;-6.312;2022-08-21T02:18:08;100726.88;;;12.15;63.11
64343;BME280;50675;53.530;-6.312;2022-08-21T02:20:37;100734.19;;;12.15;63.00
64343;BME280;50675;53.530;-6.312;2022-08-21T02:23:11;100737.19;;;12.18;63.31
64343;BME280;50675;53.530;-6.312;2022-08-21T02:25:46;100734.69;;;12.12;63.12
64343;BME280;50675;53.530;-6.312;2022-08-21T02:28:14;100747.44;;;12.16;63.05
64343;BME280;50675;53.530;-6.312;2022-08-21T02:30:45;100728.91;;;12.03;63.10
64343;BME280;50675;53.530;-6.312;2022-08-21T02:33:12;100731.63;;;12.03;63.14
64343;BME280;50675;53.530;-6.312;2022-08-21T02:35:43;100753.97;;;12.15;63.08
64343;BME280;50675;53.530;-6.312;2022-08-21T02:38:19;100748.22;;;12.12;63.04
64343;BME280;50675;53.530;-6.312;2022-08-21T02:40:55;100729.44;;;12.00;62.90
64343;BME280;50675;53.530;-6.312;2022-08-21T02:43:25;100734.03;;;12.00;63.10
64343;BME280;50675;53.530;-6.312;2022-08-21T02:45:56;100749.09;;;12.17;62.96
64343;BME280;50675;53.530;-6.312;2022-08-21T02:48:25;100713.72;;;11.97;63.05
64343;BME280;50675;53.530;-6.312;2022-08-21T02:50:57;100725.88;;;11.95;62.69
64343;BME280;50675;53.530;-6.312;2022-08-21T02:53:32;100725.63;;;11.96;62.94
64343;BME280;50675;53.530;-6.312;2022-08-21T02:56:07;100730.75;;;11.98;62.93
64343;BME280;50675;53.530;-6.312;2022-08-21T02:58:41;100727.75;;;11.94;63.09
64343;BME280;50675;53.530;-6.312;2022-08-21T03:01:11;100714.09;;;11.84;63.23
64343;BME280;50675;53.530;-6.312;2022-08-21T03:03:46;100728.28;;;11.91;63.12
64343;BME280;50675;53.530;-6.312;2022-08-21T03:06:21;100715.19;;;11.83;62.88
64343;BME280;50675;53.530;-6.312;2022-08-21T03:08:53;100714.63;;;11.81;63.09
64343;BME280;50675;53.530;-6.312;2022-08-21T03:11:25;100721.91;;;11.80;62.84
64343;BME280;50675;53.530;-6.312;2022-08-21T03:14:00;100721.69;;;11.82;63.01
64343;BME280;50675;53.530;-6.312;2022-08-21T03:16:31;100711.88;;;11.76;63.02
64343;BME280;50675;53.530;-6.312;2022-08-21T03:19:08;100708.63;;;11.79;63.10
64343;BME280;50675;53.530;-6.312;2022-08-21T03:21:42;100706.59;;;11.69;62.98
64343;BME280;50675;53.530;-6.312;2022-08-21T03:24:16;100711.78;;;11.71;62.96
64343;BME280;50675;53.530;-6.312;2022-08-21T03:26:48;100734.63;;;11.80;63.15
64343;BME280;50675;53.530;-6.312;2022-08-21T03:29:15;100732.22;;;11.83;63.29
64343;BME280;50675;53.530;-6.312;2022-08-21T03:31:50;100728.41;;;11.79;63.29
64343;BME280;50675;53.530;-6.312;2022-08-21T03:34:21;100736.28;;;11.81;63.11
64343;BME280;50675;53.530;-6.312;2022-08-21T03:36:48;100742.16;;;11.73;62.85
64343;BME280;50675;53.530;-6.312;2022-08-21T03:39:16;100725.25;;;11.66;63.04
64343;BME280;50675;53.530;-6.312;2022-08-21T03:41:42;100726.31;;;11.65;63.14
64343;BME280;50675;53.530;-6.312;2022-08-21T03:44:09;100731.47;;;11.66;63.04
64343;BME280;50675;53.530;-6.312;2022-08-21T03:46:35;100724.13;;;11.62;63.18
64343;BME280;50675;53.530;-6.312;2022-08-21T03:49:03;100735.81;;;11.67;62.95
64343;BME280;50675;53.530;-6.312;2022-08-21T03:51:29;100721.94;;;11.59;63.05
64343;BME280;50675;53.530;-6.312;2022-08-21T03:54:01;100731.34;;;11.56;63.40
64343;BME280;50675;53.530;-6.312;2022-08-21T03:56:36;100737.88;;;11.60;62.98
64343;BME280;50675;53.530;-6.312;2022-08-21T03:59:03;100740.94;;;11.64;63.06
64343;BME280;50675;53.530;-6.312;2022-08-21T04:01:31;100726.91;;;11.45;63.26
64343;BME280;50675;53.530;-6.312;2022-08-21T04:04:07;100736.47;;;11.53;63.15
64343;BME280;50675;53.530;-6.312;2022-08-21T04:06:40;100725.88;;;11.51;63.28
64343;BME280;50675;53.530;-6.312;2022-08-21T04:09:06;100756.34;;;11.63;63.15
64343;BME280;50675;53.530;-6.312;2022-08-21T04:11:35;100748.28;;;11.47;63.05
64343;BME280;50675;53.530;-6.312;2022-08-21T04:14:02;100742.38;;;11.50;63.08
64343;BME280;50675;53.530;-6.312;2022-08-21T04:16:31;100748.97;;;11.37;63.29
64343;BME280;50675;53.530;-6.312;2022-08-21T04:18:57;100743.88;;;11.40;63.31
64343;BME280;50675;53.530;-6.312;2022-08-21T04:21:24;100743.06;;;11.40;63.44
64343;BME280;50675;53.530;-6.312;2022-08-21T04:23:54;100746.09;;;11.44;63.35
64343;BME280;50675;53.530;-6.312;2022-08-21T04:26:22;100747.09;;;11.37;63.32
64343;BME280;50675;53.530;-6.312;2022-08-21T04:28:49;100750.91;;;11.41;63.44
64343;BME280;50675;53.530;-6.312;2022-08-21T04:31:26;100752.50;;;11.37;63.43
64343;BME280;50675;53.530;-6.312;2022-08-21T04:33:54;100746.34;;;11.42;63.33
64343;BME280;50675;53.530;-6.312;2022-08-21T04:36:22;100738.66;;;11.34;63.28
64343;BME280;50675;53.530;-6.312;2022-08-21T04:38:48;100744.38;;;11.37;63.27
64343;BME280;50675;53.530;-6.312;2022-08-21T04:41:14;100753.25;;;11.33;63.29
64343;BME280;50675;53.530;-6.312;2022-08-21T04:43:43;100753.81;;;11.35;63.35
64343;BME280;50675;53.530;-6.312;2022-08-21T04:46:09;100751.94;;;11.35;63.48
64343;BME280;50675;53.530;-6.312;2022-08-21T04:48:36;100765.03;;;11.44;63.38
64343;BME280;50675;53.530;-6.312;2022-08-21T04:51:11;100751.94;;;11.35;63.73
64343;BME280;50675;53.530;-6.312;2022-08-21T04:54:00;100781.31;;;11.49;63.45
64343;BME280;50675;53.530;-6.312;2022-08-21T04:56:37;100768.78;;;11.43;63.59
64343;BME280;50675;53.530;-6.312;2022-08-21T04:59:13;100756.78;;;11.33;63.32
64343;BME280;50675;53.530;-6.312;2022-08-21T05:01:43;100763.31;;;11.37;63.77
64343;BME280;50675;53.530;-6.312;2022-08-21T05:04:25;100763.00;;;11.34;63.53
64343;BME280;50675;53.530;-6.312;2022-08-21T05:07:02;100774.19;;;11.43;63.61
64343;BME280;50675;53.530;-6.312;2022-08-21T05:09:40;100765.84;;;11.44;63.33
64343;BME280;50675;53.530;-6.312;2022-08-21T05:12:10;100769.78;;;11.36;63.60
64343;BME280;50675;53.530;-6.312;2022-08-21T05:14:40;100761.13;;;11.34;63.42
64343;BME280;50675;53.530;-6.312;2022-08-21T05:17:11;100776.38;;;11.46;63.31
64343;BME280;50675;53.530;-6.312;2022-08-21T05:19:39;100758.41;;;11.34;63.70
64343;BME280;50675;53.530;-6.312;2022-08-21T05:22:08;100782.19;;;11.32;63.57
64343;BME280;50675;53.530;-6.312;2022-08-21T05:24:37;100772.41;;;11.31;63.74
64343;BME280;50675;53.530;-6.312;2022-08-21T05:27:03;100781.50;;;11.42;63.79
64343;BME280;50675;53.530;-6.312;2022-08-21T05:29:29;100769.16;;;11.29;63.71
64343;BME280;50675;53.530;-6.312;2022-08-21T05:32:08;100790.28;;;11.32;63.88
64343;BME280;50675;53.530;-6.312;2022-08-21T05:34:41;100787.28;;;11.51;63.73
64343;BME280;50675;53.530;-6.312;2022-08-21T05:37:13;100781.38;;;11.54;63.78
64343;BME280;50675;53.530;-6.312;2022-08-21T05:39:45;100788.16;;;11.56;63.76
64343;BME280;50675;53.530;-6.312;2022-08-21T05:42:23;100795.59;;;11.66;63.86
64343;BME280;50675;53.530;-6.312;2022-08-21T05:44:52;100785.28;;;11.63;63.97
64343;BME280;50675;53.530;-6.312;2022-08-21T05:47:24;100786.41;;;11.67;63.86
64343;BME280;50675;53.530;-6.312;2022-08-21T05:49:54;100816.72;;;11.86;64.24
64343;BME280;50675;53.530;-6.312;2022-08-21T05:52:21;100797.41;;;11.77;63.56
64343;BME280;50675;53.530;-6.312;2022-08-21T05:54:50;100800.16;;;11.82;63.87
64343;BME280;50675;53.530;-6.312;2022-08-21T05:57:22;100798.59;;;11.86;63.86
64343;BME280;50675;53.530;-6.312;2022-08-21T05:59:52;100787.75;;;11.86;63.96
64343;BME280;50675;53.530;-6.312;2022-08-21T06:02:20;100789.47;;;11.92;63.78
64343;BME280;50675;53.530;-6.312;2022-08-21T06:04:53;100809.78;;;12.21;64.10
64343;BME280;50675;53.530;-6.312;2022-08-21T06:07:25;100802.25;;;12.23;63.96
64343;BME280;50675;53.530;-6.312;2022-08-21T06:09:58;100823.56;;;12.42;64.08
64343;BME280;50675;53.530;-6.312;2022-08-21T06:12:25;100826.06;;;12.48;64.13
64343;BME280;50675;53.530;-6.312;2022-08-21T06:14:53;100811.50;;;12.54;64.10
64343;BME280;50675;53.530;-6.312;2022-08-21T06:17:19;100808.66;;;12.71;64.06
64343;BME280;50675;53.530;-6.312;2022-08-21T06:19:51;100790.63;;;12.87;63.94
64343;BME280;50675;53.530;-6.312;2022-08-21T06:22:20;100790.69;;;13.34;64.17
64343;BME280;50675;53.530;-6.312;2022-08-21T06:24:52;100803.97;;;13.92;64.19
64343;BME280;50675;53.530;-6.312;2022-08-21T06:27:23;100815.53;;;14.45;64.19
64343;BME280;50675;53.530;-6.312;2022-08-21T06:29:52;100809.88;;;14.87;64.12
64343;BME280;50675;53.530;-6.312;2022-08-21T06:32:18;100816.09;;;15.13;63.85
64343;BME280;50675;53.530;-6.312;2022-08-21T06:34:46;100785.31;;;15.22;63.63
64343;BME280;50675;53.530;-6.312;2022-08-21T06:37:19;100819.53;;;15.59;63.72
64343;BME280;50675;53.530;-6.312;2022-08-21T06:39:53;100799.94;;;15.67;63.59
64343;BME280;50675;53.530;-6.312;2022-08-21T06:45:33;100816.25;;;16.26;63.57
64343;BME280;50675;53.530;-6.312;2022-08-21T06:48:04;100825.31;;;16.55;63.25
64343;BME280;50675;53.530;-6.312;2022-08-21T06:50:53;100807.25;;;16.70;63.15
64343;BME280;50675;53.530;-6.312;2022-08-21T06:56:51;100838.94;;;17.28;62.85
64343;BME280;50675;53.530;-6.312;2022-08-21T06:59:49;100843.91;;;17.50;62.71
64343;BME280;50675;53.530;-6.312;2022-08-21T07:02:49;100821.84;;;17.70;62.45
64343;BME280;50675;53.530;-6.312;2022-08-21T07:06:11;100827.19;;;18.04;62.35
64343;BME280;50675;53.530;-6.312;2022-08-21T07:22:04;100873.00;;;19.38;61.06
64343;BME280;50675;53.530;-6.312;2022-08-21T07:40:35;100877.00;;;20.28;59.32
64343;BME280;50675;53.530;-6.312;2022-08-21T07:47:37;100864.16;;;20.86;58.54
64343;BME280;50675;53.530;-6.312;2022-08-21T07:51:35;100863.97;;;21.05;58.51
64343;BME280;50675;53.530;-6.312;2022-08-21T09:34:57;100890.97;;;18.61;54.08
64343;BME280;50675;53.530;-6.312;2022-08-21T09:38:37;100882.41;;;18.67;54.38
64343;BME280;50675;53.530;-6.312;2022-08-21T09:42:06;100876.97;;;18.81;54.23
64343;BME280;50675;53.530;-6.312;2022-08-21T10:04:39;100881.13;;;19.11;53.09
64343;BME280;50675;53.530;-6.312;2022-08-21T10:07:53;100863.25;;;19.00;52.91
64343;BME280;50675;53.530;-6.312;2022-08-21T11:16:07;100873.38;;;20.68;49.25
64343;BME280;50675;53.530;-6.312;2022-08-21T11:25:42;100860.47;;;20.33;48.82
64343;BME280;50675;53.530;-6.312;2022-08-21T11:29:16;100867.56;;;20.47;48.42
64343;BME280;50675;53.530;-6.312;2022-08-21T11:36:51;100859.13;;;20.44;48.33
64343;BME280;50675;53.530;-6.312;2022-08-21T11:47:58;100871.72;;;20.45;47.75
64343;BME280;50675;53.530;-6.312;2022-08-21T11:58:11;100868.59;;;20.38;47.34
64343;BME280;50675;53.530;-6.312;2022-08-21T12:02:05;100850.19;;;20.25;47.49
64343;BME280;50675;53.530;-6.312;2022-08-21T12:17:03;100841.31;;;20.77;46.97
64343;BME280;50675;53.530;-6.312;2022-08-21T12:28:36;100849.75;;;21.03;46.74
64343;BME280;50675;53.530;-6.312;2022-08-21T12:30:54;100871.03;;;21.42;46.56
64343;BME280;50675;53.530;-6.312;2022-08-21T12:35:49;100856.47;;;21.42;46.59
64343;BME280;50675;53.530;-6.312;2022-08-21T12:38:26;100858.28;;;21.46;46.26
64343;BME280;50675;53.530;-6.312;2022-08-21T12:40:56;100856.91;;;21.35;46.19
64343;BME280;50675;53.530;-6.312;2022-08-21T12:43:33;100867.59;;;21.36;46.33
64343;BME280;50675;53.530;-6.312;2022-08-21T12:46:01;100849.19;;;21.37;45.79
64343;BME280;50675;53.530;-6.312;2022-08-21T12:48:39;100866.28;;;21.34;45.92
64343;BME280;50675;53.530;-6.312;2022-08-21T12:51:13;100861.59;;;21.34;45.75
64343;BME280;50675;53.530;-6.312;2022-08-21T12:53:44;100865.66;;;21.37;45.49
64343;BME280;50675;53.530;-6.312;2022-08-21T12:56:14;100858.88;;;21.43;45.75
64343;BME280;50675;53.530;-6.312;2022-08-21T12:58:45;100859.22;;;21.42;45.52
64343;BME280;50675;53.530;-6.312;2022-08-21T13:01:19;100864.75;;;21.50;45.51
64343;BME280;50675;53.530;-6.312;2022-08-21T13:03:46;100864.75;;;21.50;45.63
64343;BME280;50675;53.530;-6.312;2022-08-21T13:06:17;100863.81;;;21.55;45.29
64343;BME280;50675;53.530;-6.312;2022-08-21T13:08:45;100870.63;;;21.57;45.44
64343;BME280;50675;53.530;-6.312;2022-08-21T13:11:16;100860.41;;;21.58;45.12
64343;BME280;50675;53.530;-6.312;2022-08-21T13:13:45;100853.94;;;21.54;44.99
64343;BME280;50675;53.530;-6.312;2022-08-21T13:16:20;100871.75;;;21.56;45.29
64343;BME280;50675;53.530;-6.312;2022-08-21T13:19:01;100855.44;;;21.60;45.24
64343;BME280;50675;53.530;-6.312;2022-08-21T13:21:33;100856.25;;;21.60;45.12
64343;BME280;50675;53.530;-6.312;2022-08-21T13:26:40;100841.78;;;21.46;44.96
64343;BME280;50675;53.530;-6.312;2022-08-21T13:29:08;100849.56;;;21.53;44.79
64343;BME280;50675;53.530;-6.312;2022-08-21T13:31:37;100845.22;;;21.52;44.84
64343;BME280;50675;53.530;-6.312;2022-08-21T13:34:05;100845.00;;;21.48;44.83
64343;BME280;50675;53.530;-6.312;2022-08-21T13:36:37;100841.41;;;21.39;44.66
64343;BME280;50675;53.530;-6.312;2022-08-21T13:39:05;100848.72;;;21.44;44.52
64343;BME280;50675;53.530;-6.312;2022-08-21T13:41:35;100840.16;;;21.45;44.26
64343;BME280;50675;53.530;-6.312;2022-08-21T13:44:23;100839.50;;;21.48;44.50
64343;BME280;50675;53.530;-6.312;2022-08-21T13:46:53;100841.69;;;21.29;44.63
64343;BME280;50675;53.530;-6.312;2022-08-21T13:49:25;100841.84;;;21.24;44.53
64343;BME280;50675;53.530;-6.312;2022-08-21T13:51:51;100845.38;;;21.24;44.42
64343;BME280;50675;53.530;-6.312;2022-08-21T13:54:29;100831.09;;;21.14;44.27
64343;BME280;50675;53.530;-6.312;2022-08-21T13:56:55;100836.84;;;21.04;44.67
64343;BME280;50675;53.530;-6.312;2022-08-21T13:59:27;100841.34;;;21.00;44.81
64343;BME280;50675;53.530;-6.312;2022-08-21T14:04:37;100842.69;;;20.88;44.81
64343;BME280;50675;53.530;-6.312;2022-08-21T14:07:16;100841.25;;;20.91;44.64
64343;BME280;50675;53.530;-6.312;2022-08-21T14:09:44;100843.38;;;20.94;44.78
64343;BME280;50675;53.530;-6.312;2022-08-21T14:12:14;100844.69;;;20.96;44.71
64343;BME280;50675;53.530;-6.312;2022-08-21T14:14:41;100845.19;;;20.99;44.72
64343;BME280;50675;53.530;-6.312;2022-08-21T14:17:12;100835.19;;;21.03;44.87
64343;BME280;50675;53.530;-6.312;2022-08-21T14:19:45;100835.97;;;21.17;44.96
64343;BME280;50675;53.530;-6.312;2022-08-21T14:25:12;100825.66;;;21.22;44.82
64343;BME280;50675;53.530;-6.312;2022-08-21T14:27:43;100830.69;;;21.29;44.77
64343;BME280;50675;53.530;-6.312;2022-08-21T14:32:46;100815.81;;;21.30;45.02
64343;BME280;50675;53.530;-6.312;2022-08-21T14:35:13;100825.47;;;21.19;44.89
64343;BME280;50675;53.530;-6.312;2022-08-21T14:37:43;100825.19;;;21.29;44.74
64343;BME280;50675;53.530;-6.312;2022-08-21T14:40:10;100825.34;;;21.24;44.68
64343;BME280;50675;53.530;-6.312;2022-08-21T14:42:37;100821.16;;;21.26;44.83
64343;BME280;50675;53.530;-6.312;2022-08-21T14:45:29;100821.69;;;21.37;44.73
64343;BME280;50675;53.530;-6.312;2022-08-21T14:47:57;100829.03;;;21.50;44.66
64343;BME280;50675;53.530;-6.312;2022-08-21T14:50:24;100816.41;;;21.49;44.70
64343;BME280;50675;53.530;-6.312;2022-08-21T14:52:50;100822.53;;;21.46;44.63
64343;BME280;50675;53.530;-6.312;2022-08-21T14:55:19;100823.34;;;21.47;44.41
64343;BME280;50675;53.530;-6.312;2022-08-21T14:57:47;100821.56;;;21.42;44.48
64343;BME280;50675;53.530;-6.312;2022-08-21T15:00:16;100830.41;;;21.39;44.76
64343;BME280;50675;53.530;-6.312;2022-08-21T15:02:43;100821.84;;;21.32;44.39
64343;BME280;50675;53.530;-6.312;2022-08-21T15:05:09;100830.41;;;21.39;44.30
64343;BME280;50675;53.530;-6.312;2022-08-21T15:07:35;100819.09;;;21.32;44.52
64343;BME280;50675;53.530;-6.312;2022-08-21T15:10:01;100818.94;;;21.37;44.29
64343;BME280;50675;53.530;-6.312;2022-08-21T15:12:28;100820.25;;;21.39;44.44
64343;BME280;50675;53.530;-6.312;2022-08-21T15:14:54;100824.91;;;21.39;44.10
64343;BME280;50675;53.530;-6.312;2022-08-21T15:17:20;100831.47;;;21.52;44.28
64343;BME280;50675;53.530;-6.312;2022-08-21T15:19:45;100824.66;;;21.49;44.36
64343;BME280;50675;53.530;-6.312;2022-08-21T15:22:11;100822.41;;;21.51;44.32
64343;BME280;50675;53.530;-6.312;2022-08-21T15:24:37;100828.88;;;21.55;44.24
64343;BME280;50675;53.530;-6.312;2022-08-21T15:27:03;100835.06;;;21.61;43.93
64343;BME280;50675;53.530;-6.312;2022-08-21T15:29:31;100834.88;;;21.57;44.36
64343;BME280;50675;53.530;-6.312;2022-08-21T15:32:00;100855.53;;;21.46;43.95
64343;BME280;50675;53.530;-6.312;2022-08-21T15:34:28;100851.47;;;21.44;43.85
64343;BME280;50675;53.530;-6.312;2022-08-21T15:36:56;100840.94;;;21.15;43.88
64343;BME280;50675;53.530;-6.312;2022-08-21T15:39:22;100846.81;;;21.00;43.72
64343;BME280;50675;53.530;-6.312;2022-08-21T15:41:48;100835.91;;;20.86;43.83
64343;BME280;50675;53.530;-6.312;2022-08-21T15:44:15;100828.84;;;20.71;43.74
64343;BME280;50675;53.530;-6.312;2022-08-21T15:46:41;100834.53;;;20.75;43.64
64343;BME280;50675;53.530;-6.312;2022-08-21T15:49:07;100835.41;;;20.62;43.67
64343;BME280;50675;53.530;-6.312;2022-08-21T15:51:34;100841.66;;;20.40;44.08
64343;BME280;50675;53.530;-6.312;2022-08-21T15:54:00;100820.31;;;20.37;43.75
64343;BME280;50675;53.530;-6.312;2022-08-21T15:56:28;100820.00;;;20.25;43.79
64343;BME280;50675;53.530;-6.312;2022-08-21T15:59:00;100819.34;;;20.19;44.17
64343;BME280;50675;53.530;-6.312;2022-08-21T16:01:27;100818.94;;;20.12;43.88
64343;BME280;50675;53.530;-6.312;2022-08-21T16:03:54;100822.00;;;19.97;43.79
64343;BME280;50675;53.530;-6.312;2022-08-21T16:06:20;100810.84;;;19.93;44.04
64343;BME280;50675;53.530;-6.312;2022-08-21T16:08:46;100813.06;;;19.91;43.82
64343;BME280;50675;53.530;-6.312;2022-08-21T16:11:13;100823.91;;;19.96;44.25
64343;BME280;50675;53.530;-6.312;2022-08-21T16:13:41;100813.88;;;19.78;44.21
64343;BME280;50675;53.530;-6.312;2022-08-21T16:16:10;100812.25;;;19.77;44.14
64343;BME280;50675;53.530;-6.312;2022-08-21T16:18:37;100805.38;;;19.80;44.25
64343;BME280;50675;53.530;-6.312;2022-08-21T16:21:03;100805.38;;;19.66;44.06
64343;BME280;50675;53.530;-6.312;2022-08-21T16:23:29;100794.00;;;19.59;44.12
64343;BME280;50675;53.530;-6.312;2022-08-21T16:25:57;100809.13;;;19.84;44.06
64343;BME280;50675;53.530;-6.312;2022-08-21T16:28:24;100800.69;;;19.94;44.33
64343;BME280;50675;53.530;-6.312;2022-08-21T16:30:50;100802.28;;;20.08;44.21
64343;BME280;50675;53.530;-6.312;2022-08-21T16:35:45;100795.28;;;20.02;44.45
64343;BME280;50675;53.530;-6.312;2022-08-21T16:38:12;100805.13;;;20.03;44.01
64343;BME280;50675;53.530;-6.312;2022-08-21T16:40:37;100802.19;;;20.00;44.28
64343;BME280;50675;53.530;-6.312;2022-08-21T16:47:04;100794.44;;;20.16;44.46
64343;BME280;50675;53.530;-6.312;2022-08-21T16:49:42;100777.00;;;19.98;44.30
64343;BME280;50675;53.530;-6.312;2022-08-21T16:52:14;100785.88;;;19.81;44.04
64343;BME280;50675;53.530;-6.312;2022-08-21T16:54:44;100775.53;;;19.51;44.25
64343;BME280;50675;53.530;-6.312;2022-08-21T16:57:10;100781.00;;;19.51;44.30
64343;BME280;50675;53.530;-6.312;2022-08-21T16:59:37;100769.69;;;19.39;44.31
64343;BME280;50675;53.530;-6.312;2022-08-21T17:02:03;100770.44;;;19.44;44.46
64343;BME280;50675;53.530;-6.312;2022-08-21T17:04:29;100775.31;;;19.34;44.01
64343;BME280;50675;53.530;-6.312;2022-08-21T17:06:56;100782.41;;;19.48;44.16
64343;BME280;50675;53.530;-6.312;2022-08-21T17:09:21;100796.25;;;19.24;44.32
64343;BME280;50675;53.530;-6.312;2022-08-21T17:11:47;100802.38;;;19.35;44.31
64343;BME280;50675;53.530;-6.312;2022-08-21T17:14:19;100800.34;;;19.27;44.39
64343;BME280;50675;53.530;-6.312;2022-08-21T17:16:50;100808.66;;;19.22;44.30
64343;BME280;50675;53.530;-6.312;2022-08-21T17:19:17;100801.06;;;19.33;44.28
64343;BME280;50675;53.530;-6.312;2022-08-21T17:21:44;100806.28;;;19.15;44.65
64343;BME280;50675;53.530;-6.312;2022-08-21T17:24:10;100803.69;;;19.24;44.28
64343;BME280;50675;53.530;-6.312;2022-08-21T17:26:40;100794.88;;;19.27;44.71
64343;BME280;50675;53.530;-6.312;2022-08-21T17:29:06;100780.97;;;19.37;44.32
64343;BME280;50675;53.530;-6.312;2022-08-21T17:31:35;100778.38;;;19.46;44.37
64343;BME280;50675;53.530;-6.312;2022-08-21T17:34:02;100789.63;;;19.44;44.52
64343;BME280;50675;53.530;-6.312;2022-08-21T17:36:29;100787.31;;;19.51;44.80
64343;BME280;50675;53.530;-6.312;2022-08-21T17:38:56;100799.47;;;19.59;44.73
64343;BME280;50675;53.530;-6.312;2022-08-21T17:41:22;100808.00;;;19.44;44.31
64343;BME280;50675;53.530;-6.312;2022-08-21T17:43:49;100796.69;;;19.32;44.41
64343;BME280;50675;53.530;-6.312;2022-08-21T17:46:20;100802.28;;;19.40;44.47
64343;BME280;50675;53.530;-6.312;2022-08-21T17:48:47;100795.13;;;19.12;44.63
64343;BME280;50675;53.530;-6.312;2022-08-21T17:51:13;100805.47;;;19.15;44.53
64343;BME280;50675;53.530;-6.312;2022-08-21T17:53:39;100804.16;;;19.12;44.87
64343;BME280;50675;53.530;-6.312;2022-08-21T17:56:06;100806.50;;;19.05;44.77
64343;BME280;50675;53.530;-6.312;2022-08-21T17:58:32;100810.38;;;19.18;44.96
64343;BME280;50675;53.530;-6.312;2022-08-21T18:00:59;100801.13;;;19.14;44.88
64343;BME280;50675;53.530;-6.312;2022-08-21T18:03:28;100821.38;;;18.99;44.94